sensor_id;sensor_type;location;lat;lon;timestamp;temperature;humidity
52799;DHT22;38667;42.872;74.622;2023-07-20T00:01:58;24.50;39.20
52799;DHT22;38667;42.872;74.622;2023-07-20T00:04:24;24.40;39.30
52799;DHT22;38667;42.872;74.622;2023-07-20T00:06:50;24.30;39.60
52799;DHT22;38667;42.872;74.622;2023-07-20T00:09:17;24.20;39.70
52799;DHT22;38667;42.872;74.622;2023-07-20T00:11:51;24.10;39.80
52799;DHT22;38667;42.872;74.622;2023-07-20T00:14:17;24.10;40.10
52799;DHT22;38667;42.872;74.622;2023-07-20T00:16:44;24.00;40.10
52799;DHT22;38667;42.872;74.622;2023-07-20T00:19:10;24.00;40.40
52799;DHT22;38667;42.872;74.622;2023-07-20T00:21:37;23.90;40.60
52799;DHT22;38667;42.872;74.622;2023-07-20T00:24:03;23.90;40.80
52799;DHT22;38667;42.872;74.622;2023-07-20T00:26:30;23.80;40.80
52799;DHT22;38667;42.872;74.622;2023-07-20T00:28:58;23.80;40.90
52799;DHT22;38667;42.872;74.622;2023-07-20T00:31:24;23.80;41.40
52799;DHT22;38667;42.872;74.622;2023-07-20T00:33:50;23.80;41.30
52799;DHT22;38667;42.872;74.622;2023-07-20T00:36:16;23.80;41.80
52799;DHT22;38667;42.872;74.622;2023-07-20T00:38:43;23.70;41.70
52799;DHT22;38667;42.872;74.622;2023-07-20T00:41:09;23.50;42.10
52799;DHT22;38667;42.872;74.622;2023-07-20T00:43:35;23.50;42.70
52799;DHT22;38667;42.872;74.622;2023-07-20T00:46:04;23.50;42.70
52799;DHT22;38667;42.872;74.622;2023-07-20T00:48:31;23.50;42.60
52799;DHT22;38667;42.872;74.622;2023-07-20T00:50:58;23.40;42.90
52799;DHT22;38667;42.872;74.622;2023-07-20T00:53:26;23.40;43.20
52799;DHT22;38667;42.872;74.622;2023-07-20T00:55:52;23.40;43.30
52799;DHT22;38667;42.872;74.622;2023-07-20T00:58:19;23.30;43.60
52799;DHT22;38667;42.872;74.622;2023-07-20T01:00:45;23.30;44.00
52799;DHT22;38667;42.872;74.622;2023-07-20T01:03:13;23.20;43.90
52799;DHT22;38667;42.872;74.622;2023-07-20T01:05:45;23.20;44.40
52799;DHT22;38667;42.872;74.622;2023-07-20T01:08:17;23.20;44.40
52799;DHT22;38667;42.872;74.622;2023-07-20T01:10:50;23.20;44.60
52799;DHT22;38667;42.872;74.622;2023-07-20T01:13:18;23.20;44.70
52799;DHT22;38667;42.872;74.622;2023-07-20T01:15:49;23.20;44.60
52799;DHT22;38667;42.872;74.622;2023-07-20T01:18:17;23.30;44.60
52799;DHT22;38667;42.872;74.622;2023-07-20T01:20:44;23.30;44.60
52799;DHT22;38667;42.872;74.622;2023-07-20T01:23:31;23.20;44.70
52799;DHT22;38667;42.872;74.622;2023-07-20T01:26:15;23.30;44.70
52799;DHT22;38667;42.872;74.622;2023-07-20T01:29:16;23.30;44.60
52799;DHT22;38667;42.872;74.622;2023-07-20T01:31:45;23.30;44.60
52799;DHT22;38667;42.872;74.622;2023-07-20T01:34:15;23.30;44.60
52799;DHT22;38667;42.872;74.622;2023-07-20T01:36:43;23.40;44.60
52799;DHT22;38667;42.872;74.622;2023-07-20T01:39:11;23.40;44.90
52799;DHT22;38667;42.872;74.622;2023-07-20T01:41:37;23.50;44.70
52799;DHT22;38667;42.872;74.622;2023-07-20T01:44:04;23.50;44.60
52799;DHT22;38667;42.872;74.622;2023-07-20T01:46:31;23.50;44.40
52799;DHT22;38667;42.872;74.622;2023-07-20T01:48:59;23.50;44.50
52799;DHT22;38667;42.872;74.622;2023-07-20T01:51:25;23.50;44.70
52799;DHT22;38667;42.872;74.622;2023-07-20T01:53:51;23.70;44.50
52799;DHT22;38667;42.872;74.622;2023-07-20T01:56:17;23.60;44.20
52799;DHT22;38667;42.872;74.622;2023-07-20T01:58:44;23.70;44.60
52799;DHT22;38667;42.872;74.622;2023-07-20T02:01:10;23.70;44.40
52799;DHT22;38667;42.872;74.622;2023-07-20T02:03:36;23.80;44.30
52799;DHT22;38667;42.872;74.622;2023-07-20T02:06:05;23.90;44.40
52799;DHT22;38667;42.872;74.622;2023-07-20T02:08:31;24.00;43.90
52799;DHT22;38667;42.872;74.622;2023-07-20T02:10:57;24.10;43.80
52799;DHT22;38667;42.872;74.622;2023-07-20T02:13:24;24.10;44.00
52799;DHT22;38667;42.872;74.622;2023-07-20T02:15:50;24.20;43.40
52799;DHT22;38667;42.872;74.622;2023-07-20T02:18:16;24.20;43.10
52799;DHT22;38667;42.872;74.622;2023-07-20T02:20:43;24.30;43.50
52799;DHT22;38667;42.872;74.622;2023-07-20T02:23:11;24.40;43.00
52799;DHT22;38667;42.872;74.622;2023-07-20T02:25:37;24.50;43.00
52799;DHT22;38667;42.872;74.622;2023-07-20T02:28:04;24.50;43.00
52799;DHT22;38667;42.872;74.622;2023-07-20T02:30:30;24.60;42.80
52799;DHT22;38667;42.872;74.622;2023-07-20T02:32:57;24.70;43.20
52799;DHT22;38667;42.872;74.622;2023-07-20T02:35:23;24.70;42.70
52799;DHT22;38667;42.872;74.622;2023-07-20T02:37:49;24.80;42.60
52799;DHT22;38667;42.872;74.622;2023-07-20T02:40:17;24.80;42.30
52799;DHT22;38667;42.872;74.622;2023-07-20T02:42:44;24.90;42.20
52799;DHT22;38667;42.872;74.622;2023-07-20T02:45:10;24.90;42.00
52799;DHT22;38667;42.872;74.622;2023-07-20T02:47:37;25.00;42.60
52799;DHT22;38667;42.872;74.622;2023-07-20T02:50:06;25.20;42.10
52799;DHT22;38667;42.872;74.622;2023-07-20T02:52:32;25.20;41.80
52799;DHT22;38667;42.872;74.622;2023-07-20T02:54:59;25.30;41.30
52799;DHT22;38667;42.872;74.622;2023-07-20T02:57:27;25.20;42.00
52799;DHT22;38667;42.872;74.622;2023-07-20T02:59:53;25.20;41.70
52799;DHT22;38667;42.872;74.622;2023-07-20T03:02:20;25.30;41.90
52799;DHT22;38667;42.872;74.622;2023-07-20T03:04:46;25.40;42.50
52799;DHT22;38667;42.872;74.622;2023-07-20T03:07:12;25.40;41.70
52799;DHT22;38667;42.872;74.622;2023-07-20T03:09:38;25.50;41.40
52799;DHT22;38667;42.872;74.622;2023-07-20T03:12:06;25.50;42.40
52799;DHT22;38667;42.872;74.622;2023-07-20T03:14:34;25.70;41.70
52799;DHT22;38667;42.872;74.622;2023-07-20T03:17:00;25.70;41.30
52799;DHT22;38667;42.872;74.622;2023-07-20T03:19:27;25.80;41.10
52799;DHT22;38667;42.872;74.622;2023-07-20T03:21:53;25.80;40.70
52799;DHT22;38667;42.872;74.622;2023-07-20T03:24:19;25.70;40.80
52799;DHT22;38667;42.872;74.622;2023-07-20T03:26:45;25.70;41.30
52799;DHT22;38667;42.872;74.622;2023-07-20T03:29:12;25.70;41.00
52799;DHT22;38667;42.872;74.622;2023-07-20T03:31:40;25.70;41.80
52799;DHT22;38667;42.872;74.622;2023-07-20T03:34:06;25.90;42.40
52799;DHT22;38667;42.872;74.622;2023-07-20T03:36:32;26.00;41.90
52799;DHT22;38667;42.872;74.622;2023-07-20T03:38:59;26.00;40.80
52799;DHT22;38667;42.872;74.622;2023-07-20T03:41:25;26.10;40.70
52799;DHT22;38667;42.872;74.622;2023-07-20T03:43:51;26.20;40.90
52799;DHT22;38667;42.872;74.622;2023-07-20T03:46:17;26.20;40.30
52799;DHT22;38667;42.872;74.622;2023-07-20T03:48:45;26.20;40.90
52799;DHT22;38667;42.872;74.622;2023-07-20T03:51:12;26.20;40.60
52799;DHT22;38667;42.872;74.622;2023-07-20T03:53:39;26.30;42.20
52799;DHT22;38667;42.872;74.622;2023-07-20T03:56:05;26.60;40.70
52799;DHT22;38667;42.872;74.622;2023-07-20T03:58:32;26.70;40.10
52799;DHT22;38667;42.872;74.622;2023-07-20T04:00:58;26.70;40.50
52799;DHT22;38667;42.872;74.622;2023-07-20T04:03:24;26.70;39.90
52799;DHT22;38667;42.872;74.622;2023-07-20T04:05:53;26.60;39.50
52799;DHT22;38667;42.872;74.622;2023-07-20T04:08:20;26.50;39.60
52799;DHT22;38667;42.872;74.622;2023-07-20T04:10:46;26.60;40.70
52799;DHT22;38667;42.872;74.622;2023-07-20T04:13:13;26.80;39.40
52799;DHT22;38667;42.872;74.622;2023-07-20T04:15:39;27.00;41.00
52799;DHT22;38667;42.872;74.622;2023-07-20T04:18:05;27.10;39.70
52799;DHT22;38667;42.872;74.622;2023-07-20T04:20:32;27.00;40.40
52799;DHT22;38667;42.872;74.622;2023-07-20T04:23:00;27.20;41.30
52799;DHT22;38667;42.872;74.622;2023-07-20T04:25:26;27.10;39.30
52799;DHT22;38667;42.872;74.622;2023-07-20T04:27:52;26.80;38.90
52799;DHT22;38667;42.872;74.622;2023-07-20T04:30:19;26.80;40.00
52799;DHT22;38667;42.872;74.622;2023-07-20T04:32:45;26.90;40.20
52799;DHT22;38667;42.872;74.622;2023-07-20T04:35:17;27.00;41.10
52799;DHT22;38667;42.872;74.622;2023-07-20T04:37:44;27.00;39.70
52799;DHT22;38667;42.872;74.622;2023-07-20T04:40:12;27.00;39.10
52799;DHT22;38667;42.872;74.622;2023-07-20T04:42:39;27.10;39.30
52799;DHT22;38667;42.872;74.622;2023-07-20T04:45:06;27.50;40.60
52799;DHT22;38667;42.872;74.622;2023-07-20T04:47:32;27.50;38.20
52799;DHT22;38667;42.872;74.622;2023-07-20T04:49:59;27.20;38.80
52799;DHT22;38667;42.872;74.622;2023-07-20T04:52:25;27.20;39.20
52799;DHT22;38667;42.872;74.622;2023-07-20T04:54:51;27.30;39.60
52799;DHT22;38667;42.872;74.622;2023-07-20T04:57:19;27.30;38.90
52799;DHT22;38667;42.872;74.622;2023-07-20T04:59:45;27.50;38.90
52799;DHT22;38667;42.872;74.622;2023-07-20T05:02:12;27.60;38.20
52799;DHT22;38667;42.872;74.622;2023-07-20T05:04:38;27.80;38.70
52799;DHT22;38667;42.872;74.622;2023-07-20T05:07:05;28.00;37.90
52799;DHT22;38667;42.872;74.622;2023-07-20T05:09:31;28.00;39.50
52799;DHT22;38667;42.872;74.622;2023-07-20T05:11:57;28.00;39.50
52799;DHT22;38667;42.872;74.622;2023-07-20T05:14:25;28.00;39.00
52799;DHT22;38667;42.872;74.622;2023-07-20T05:20:31;28.30;39.40
52799;DHT22;38667;42.872;74.622;2023-07-20T05:22:57;28.70;40.20
52799;DHT22;38667;42.872;74.622;2023-07-20T05:25:24;28.90;39.50
52799;DHT22;38667;42.872;74.622;2023-07-20T05:27:51;28.90;37.80
52799;DHT22;38667;42.872;74.622;2023-07-20T05:30:19;28.90;37.60
52799;DHT22;38667;42.872;74.622;2023-07-20T05:32:45;28.70;38.20
52799;DHT22;38667;42.872;74.622;2023-07-20T05:35:12;28.60;38.60
52799;DHT22;38667;42.872;74.622;2023-07-20T05:37:38;28.60;38.90
52799;DHT22;38667;42.872;74.622;2023-07-20T05:40:05;28.70;37.90
52799;DHT22;38667;42.872;74.622;2023-07-20T05:42:32;28.90;38.60
52799;DHT22;38667;42.872;74.622;2023-07-20T05:44:58;29.20;37.80
52799;DHT22;38667;42.872;74.622;2023-07-20T05:47:26;29.30;37.70
52799;DHT22;38667;42.872;74.622;2023-07-20T05:49:52;29.40;38.00
52799;DHT22;38667;42.872;74.622;2023-07-20T05:52:19;29.50;37.00
52799;DHT22;38667;42.872;74.622;2023-07-20T05:54:45;29.40;37.80
52799;DHT22;38667;42.872;74.622;2023-07-20T05:57:11;29.70;36.50
52799;DHT22;38667;42.872;74.622;2023-07-20T05:59:38;29.90;35.60
52799;DHT22;38667;42.872;74.622;2023-07-20T06:02:04;30.00;36.80
52799;DHT22;38667;42.872;74.622;2023-07-20T06:04:32;30.20;36.30
52799;DHT22;38667;42.872;74.622;2023-07-20T06:06:59;30.50;36.80
52799;DHT22;38667;42.872;74.622;2023-07-20T06:09:25;30.80;35.30
52799;DHT22;38667;42.872;74.622;2023-07-20T06:11:51;31.00;35.90
52799;DHT22;38667;42.872;74.622;2023-07-20T06:14:17;31.00;35.50
52799;DHT22;38667;42.872;74.622;2023-07-20T06:16:44;30.70;35.70
52799;DHT22;38667;42.872;74.622;2023-07-20T06:19:10;30.40;36.50
52799;DHT22;38667;42.872;74.622;2023-07-20T06:21:38;30.30;36.60
52799;DHT22;38667;42.872;74.622;2023-07-20T06:24:05;30.10;36.00
52799;DHT22;38667;42.872;74.622;2023-07-20T06:26:31;29.80;36.40
52799;DHT22;38667;42.872;74.622;2023-07-20T06:28:58;29.50;37.10
52799;DHT22;38667;42.872;74.622;2023-07-20T06:31:24;29.50;37.90
52799;DHT22;38667;42.872;74.622;2023-07-20T06:33:50;29.40;37.80
52799;DHT22;38667;42.872;74.622;2023-07-20T06:36:18;29.50;37.80
52799;DHT22;38667;42.872;74.622;2023-07-20T06:38:46;29.70;38.10
52799;DHT22;38667;42.872;74.622;2023-07-20T06:41:12;29.70;38.30
52799;DHT22;38667;42.872;74.622;2023-07-20T06:43:38;29.50;37.80
52799;DHT22;38667;42.872;74.622;2023-07-20T06:46:05;29.30;37.30
52799;DHT22;38667;42.872;74.622;2023-07-20T06:48:31;29.30;38.10
52799;DHT22;38667;42.872;74.622;2023-07-20T06:50:57;29.30;38.00
52799;DHT22;38667;42.872;74.622;2023-07-20T06:53:24;29.40;38.10
52799;DHT22;38667;42.872;74.622;2023-07-20T06:55:51;29.30;38.10
52799;DHT22;38667;42.872;74.622;2023-07-20T06:58:18;29.20;38.80
52799;DHT22;38667;42.872;74.622;2023-07-20T07:00:44;29.30;38.70
52799;DHT22;38667;42.872;74.622;2023-07-20T07:03:10;29.30;38.50
52799;DHT22;38667;42.872;74.622;2023-07-20T07:05:37;29.30;38.40
52799;DHT22;38667;42.872;74.622;2023-07-20T07:08:04;29.50;38.20
52799;DHT22;38667;42.872;74.622;2023-07-20T07:10:30;29.50;38.00
52799;DHT22;38667;42.872;74.622;2023-07-20T07:12:58;29.50;37.80
52799;DHT22;38667;42.872;74.622;2023-07-20T07:15:24;29.40;38.00
52799;DHT22;38667;42.872;74.622;2023-07-20T07:17:50;29.40;38.70
52799;DHT22;38667;42.872;74.622;2023-07-20T07:20:17;29.50;38.60
52799;DHT22;38667;42.872;74.622;2023-07-20T07:22:43;29.50;37.90
52799;DHT22;38667;42.872;74.622;2023-07-20T07:25:10;29.50;37.70
52799;DHT22;38667;42.872;74.622;2023-07-20T07:27:37;29.60;38.30
52799;DHT22;38667;42.872;74.622;2023-07-20T07:30:06;29.50;38.90
52799;DHT22;38667;42.872;74.622;2023-07-20T07:32:32;29.50;38.70
52799;DHT22;38667;42.872;74.622;2023-07-20T07:34:59;29.50;38.40
52799;DHT22;38667;42.872;74.622;2023-07-20T07:37:25;29.60;38.60
52799;DHT22;38667;42.872;74.622;2023-07-20T07:39:51;29.70;38.40
52799;DHT22;38667;42.872;74.622;2023-07-20T07:42:18;29.80;38.80
52799;DHT22;38667;42.872;74.622;2023-07-20T07:44:44;29.90;37.90
52799;DHT22;38667;42.872;74.622;2023-07-20T07:47:12;29.80;38.10
52799;DHT22;38667;42.872;74.622;2023-07-20T07:49:38;29.90;38.50
52799;DHT22;38667;42.872;74.622;2023-07-20T07:52:05;29.90;38.50
52799;DHT22;38667;42.872;74.622;2023-07-20T07:54:32;30.00;38.00
52799;DHT22;38667;42.872;74.622;2023-07-20T07:56:58;29.90;38.30
52799;DHT22;38667;42.872;74.622;2023-07-20T07:59:24;29.90;38.20
52799;DHT22;38667;42.872;74.622;2023-07-20T08:01:51;29.90;37.30
52799;DHT22;38667;42.872;74.622;2023-07-20T08:04:19;29.90;38.00
52799;DHT22;38667;42.872;74.622;2023-07-20T08:06:45;29.90;37.80
52799;DHT22;38667;42.872;74.622;2023-07-20T08:09:11;29.90;37.80
52799;DHT22;38667;42.872;74.622;2023-07-20T08:11:40;29.90;37.90
52799;DHT22;38667;42.872;74.622;2023-07-20T08:14:06;29.90;38.10
52799;DHT22;38667;42.872;74.622;2023-07-20T08:16:32;30.00;38.00
52799;DHT22;38667;42.872;74.622;2023-07-20T08:18:59;29.90;37.50
52799;DHT22;38667;42.872;74.622;2023-07-20T08:21:27;29.80;37.90
52799;DHT22;38667;42.872;74.622;2023-07-20T08:23:53;29.80;37.60
52799;DHT22;38667;42.872;74.622;2023-07-20T08:26:19;29.90;37.60
52799;DHT22;38667;42.872;74.622;2023-07-20T08:28:46;29.90;37.60
52799;DHT22;38667;42.872;74.622;2023-07-20T08:31:12;30.00;37.50
52799;DHT22;38667;42.872;74.622;2023-07-20T08:33:38;30.00;38.10
52799;DHT22;38667;42.872;74.622;2023-07-20T08:36:05;30.00;37.90
52799;DHT22;38667;42.872;74.622;2023-07-20T08:38:33;30.50;37.40
52799;DHT22;38667;42.872;74.622;2023-07-20T08:40:59;30.50;37.20
52799;DHT22;38667;42.872;74.622;2023-07-20T08:43:26;30.40;36.20
52799;DHT22;38667;42.872;74.622;2023-07-20T08:45:54;30.40;36.60
52799;DHT22;38667;42.872;74.622;2023-07-20T08:48:21;30.60;36.80
52799;DHT22;38667;42.872;74.622;2023-07-20T08:50:48;30.80;37.00
52799;DHT22;38667;42.872;74.622;2023-07-20T08:53:15;30.80;36.40
52799;DHT22;38667;42.872;74.622;2023-07-20T08:55:44;31.30;36.50
52799;DHT22;38667;42.872;74.622;2023-07-20T08:58:12;32.30;34.70
52799;DHT22;38667;42.872;74.622;2023-07-20T09:00:39;32.90;33.10
52799;DHT22;38667;42.872;74.622;2023-07-20T09:03:05;32.10;34.40
52799;DHT22;38667;42.872;74.622;2023-07-20T09:05:31;31.30;36.40
52799;DHT22;38667;42.872;74.622;2023-07-20T09:07:58;31.10;36.10
52799;DHT22;38667;42.872;74.622;2023-07-20T09:10:24;31.30;36.20
52799;DHT22;38667;42.872;74.622;2023-07-20T09:12:52;31.10;35.70
52799;DHT22;38667;42.872;74.622;2023-07-20T09:15:19;30.80;35.80
52799;DHT22;38667;42.872;74.622;2023-07-20T09:17:46;31.20;36.00
52799;DHT22;38667;42.872;74.622;2023-07-20T09:20:15;31.30;35.60
52799;DHT22;38667;42.872;74.622;2023-07-20T09:22:42;31.10;36.20
52799;DHT22;38667;42.872;74.622;2023-07-20T09:25:11;31.10;36.50
52799;DHT22;38667;42.872;74.622;2023-07-20T09:27:39;31.40;36.10
52799;DHT22;38667;42.872;74.622;2023-07-20T09:30:08;32.10;34.50
52799;DHT22;38667;42.872;74.622;2023-07-20T09:32:39;32.60;33.90
52799;DHT22;38667;42.872;74.622;2023-07-20T09:35:06;32.60;33.60
52799;DHT22;38667;42.872;74.622;2023-07-20T09:37:33;32.00;34.80
52799;DHT22;38667;42.872;74.622;2023-07-20T09:40:00;31.30;36.90
52799;DHT22;38667;42.872;74.622;2023-07-20T09:42:26;31.30;36.60
52799;DHT22;38667;42.872;74.622;2023-07-20T09:44:53;31.10;35.70
52799;DHT22;38667;42.872;74.622;2023-07-20T09:47:24;30.90;36.60
52799;DHT22;38667;42.872;74.622;2023-07-20T09:49:54;30.60;37.30
52799;DHT22;38667;42.872;74.622;2023-07-20T09:52:21;30.40;37.00
52799;DHT22;38667;42.872;74.622;2023-07-20T09:54:48;30.40;37.70
52799;DHT22;38667;42.872;74.622;2023-07-20T09:57:14;30.50;37.40
52799;DHT22;38667;42.872;74.622;2023-07-20T09:59:42;30.30;37.40
52799;DHT22;38667;42.872;74.622;2023-07-20T10:02:14;30.30;38.80
52799;DHT22;38667;42.872;74.622;2023-07-20T10:04:46;30.40;37.40
52799;DHT22;38667;42.872;74.622;2023-07-20T10:07:15;30.50;36.50
52799;DHT22;38667;42.872;74.622;2023-07-20T10:09:44;30.60;37.80
52799;DHT22;38667;42.872;74.622;2023-07-20T10:12:11;30.80;36.70
52799;DHT22;38667;42.872;74.622;2023-07-20T10:14:41;30.70;36.90
52799;DHT22;38667;42.872;74.622;2023-07-20T10:17:11;30.60;36.80
52799;DHT22;38667;42.872;74.622;2023-07-20T10:19:42;30.50;37.10
52799;DHT22;38667;42.872;74.622;2023-07-20T10:22:13;30.50;37.50
52799;DHT22;38667;42.872;74.622;2023-07-20T10:24:45;30.50;38.30
52799;DHT22;38667;42.872;74.622;2023-07-20T10:27:12;30.30;38.70
52799;DHT22;38667;42.872;74.622;2023-07-20T10:29:38;30.40;37.60
52799;DHT22;38667;42.872;74.622;2023-07-20T10:32:06;30.40;37.80
52799;DHT22;38667;42.872;74.622;2023-07-20T10:34:33;30.50;37.40
52799;DHT22;38667;42.872;74.622;2023-07-20T10:37:00;30.60;37.10
52799;DHT22;38667;42.872;74.622;2023-07-20T10:39:29;30.70;37.20
52799;DHT22;38667;42.872;74.622;2023-07-20T10:42:03;30.80;37.00
52799;DHT22;38667;42.872;74.622;2023-07-20T10:44:32;30.90;36.20
52799;DHT22;38667;42.872;74.622;2023-07-20T10:47:03;30.80;36.90
52799;DHT22;38667;42.872;74.622;2023-07-20T10:49:33;30.70;37.00
52799;DHT22;38667;42.872;74.622;2023-07-20T10:52:00;30.70;38.00
52799;DHT22;38667;42.872;74.622;2023-07-20T10:54:47;30.70;38.40
52799;DHT22;38667;42.872;74.622;2023-07-20T10:57:29;30.80;37.40
52799;DHT22;38667;42.872;74.622;2023-07-20T11:00:11;30.70;37.80
52799;DHT22;38667;42.872;74.622;2023-07-20T11:02:45;30.80;37.80
52799;DHT22;38667;42.872;74.622;2023-07-20T11:05:36;30.70;37.40
52799;DHT22;38667;42.872;74.622;2023-07-20T11:08:09;30.60;37.00
52799;DHT22;38667;42.872;74.622;2023-07-20T11:10:37;30.50;37.10
52799;DHT22;38667;42.872;74.622;2023-07-20T11:13:23;30.50;38.40
52799;DHT22;38667;42.872;74.622;2023-07-20T11:16:02;30.70;39.50
52799;DHT22;38667;42.872;74.622;2023-07-20T11:18:29;30.70;37.90
52799;DHT22;38667;42.872;74.622;2023-07-20T11:20:55;30.60;38.40
52799;DHT22;38667;42.872;74.622;2023-07-20T11:23:22;30.60;37.70
52799;DHT22;38667;42.872;74.622;2023-07-20T11:25:50;30.50;37.20
52799;DHT22;38667;42.872;74.622;2023-07-20T11:28:17;30.50;38.30
52799;DHT22;38667;42.872;74.622;2023-07-20T11:30:43;30.60;38.00
52799;DHT22;38667;42.872;74.622;2023-07-20T11:33:09;30.50;37.70
52799;DHT22;38667;42.872;74.622;2023-07-20T11:35:39;30.50;37.90
52799;DHT22;38667;42.872;74.622;2023-07-20T11:38:08;30.40;38.80
52799;DHT22;38667;42.872;74.622;2023-07-20T11:40:34;30.40;38.00
52799;DHT22;38667;42.872;74.622;2023-07-20T11:43:02;30.40;39.50
52799;DHT22;38667;42.872;74.622;2023-07-20T11:45:28;30.60;39.20
52799;DHT22;38667;42.872;74.622;2023-07-20T11:47:55;30.70;38.00
52799;DHT22;38667;42.872;74.622;2023-07-20T11:50:24;30.60;38.60
52799;DHT22;38667;42.872;74.622;2023-07-20T11:52:50;30.40;39.30
52799;DHT22;38667;42.872;74.622;2023-07-20T11:55:17;30.30;38.50
52799;DHT22;38667;42.872;74.622;2023-07-20T11:58:03;30.20;39.30
52799;DHT22;38667;42.872;74.622;2023-07-20T12:00:29;30.20;39.60
52799;DHT22;38667;42.872;74.622;2023-07-20T12:02:56;30.10;38.90
52799;DHT22;38667;42.872;74.622;2023-07-20T12:05:23;30.20;38.70
52799;DHT22;38667;42.872;74.622;2023-07-20T12:07:50;30.10;38.20
52799;DHT22;38667;42.872;74.622;2023-07-20T12:10:16;30.10;39.20
52799;DHT22;38667;42.872;74.622;2023-07-20T12:12:43;30.10;39.10
52799;DHT22;38667;42.872;74.622;2023-07-20T12:15:20;30.10;39.40
52799;DHT22;38667;42.872;74.622;2023-07-20T12:17:49;29.90;38.60
52799;DHT22;38667;42.872;74.622;2023-07-20T12:20:25;29.90;39.60
52799;DHT22;38667;42.872;74.622;2023-07-20T12:22:52;29.90;39.40
52799;DHT22;38667;42.872;74.622;2023-07-20T12:25:18;29.90;38.70
52799;DHT22;38667;42.872;74.622;2023-07-20T12:27:45;29.80;38.70
52799;DHT22;38667;42.872;74.622;2023-07-20T12:30:11;29.90;38.60
52799;DHT22;38667;42.872;74.622;2023-07-20T12:32:39;29.90;38.70
52799;DHT22;38667;42.872;74.622;2023-07-20T12:35:06;29.90;39.00
52799;DHT22;38667;42.872;74.622;2023-07-20T12:37:32;30.00;39.00
52799;DHT22;38667;42.872;74.622;2023-07-20T12:39:59;30.00;39.40
52799;DHT22;38667;42.872;74.622;2023-07-20T12:42:25;30.00;38.70
52799;DHT22;38667;42.872;74.622;2023-07-20T12:44:52;30.10;38.50
52799;DHT22;38667;42.872;74.622;2023-07-20T12:47:19;30.10;38.90
52799;DHT22;38667;42.872;74.622;2023-07-20T12:49:46;29.90;38.10
52799;DHT22;38667;42.872;74.622;2023-07-20T12:52:13;29.90;38.30
52799;DHT22;38667;42.872;74.622;2023-07-20T12:54:39;30.00;38.70
52799;DHT22;38667;42.872;74.622;2023-07-20T12:57:06;30.00;38.90
52799;DHT22;38667;42.872;74.622;2023-07-20T12:59:32;29.90;38.40
52799;DHT22;38667;42.872;74.622;2023-07-20T13:01:59;29.90;38.90
52799;DHT22;38667;42.872;74.622;2023-07-20T13:04:25;29.90;39.00
52799;DHT22;38667;42.872;74.622;2023-07-20T13:06:53;29.90;38.40
52799;DHT22;38667;42.872;74.622;2023-07-20T13:09:19;29.90;38.30
52799;DHT22;38667;42.872;74.622;2023-07-20T13:11:46;29.90;38.30
52799;DHT22;38667;42.872;74.622;2023-07-20T13:14:12;30.00;38.60
52799;DHT22;38667;42.872;74.622;2023-07-20T13:16:38;30.00;39.30
52799;DHT22;38667;42.872;74.622;2023-07-20T13:19:04;30.10;40.00
52799;DHT22;38667;42.872;74.622;2023-07-20T13:21:31;30.20;39.90
52799;DHT22;38667;42.872;74.622;2023-07-20T13:23:59;30.20;38.50
52799;DHT22;38667;42.872;74.622;2023-07-20T13:26:25;30.00;39.00
52799;DHT22;38667;42.872;74.622;2023-07-20T13:28:51;30.00;39.70
52799;DHT22;38667;42.872;74.622;2023-07-20T13:31:18;30.10;38.40
52799;DHT22;38667;42.872;74.622;2023-07-20T13:33:44;30.20;37.70
52799;DHT22;38667;42.872;74.622;2023-07-20T13:36:10;30.30;37.40
52799;DHT22;38667;42.872;74.622;2023-07-20T13:38:36;30.20;37.40
52799;DHT22;38667;42.872;74.622;2023-07-20T13:41:04;30.20;38.10
52799;DHT22;38667;42.872;74.622;2023-07-20T13:43:31;30.10;38.20
52799;DHT22;38667;42.872;74.622;2023-07-20T13:45:57;30.00;38.10
52799;DHT22;38667;42.872;74.622;2023-07-20T13:48:23;30.10;38.10
52799;DHT22;38667;42.872;74.622;2023-07-20T13:50:50;30.10;38.10
52799;DHT22;38667;42.872;74.622;2023-07-20T13:53:16;30.00;38.70
52799;DHT22;38667;42.872;74.622;2023-07-20T13:55:42;29.90;38.30
52799;DHT22;38667;42.872;74.622;2023-07-20T13:58:10;29.90;38.50
52799;DHT22;38667;42.872;74.622;2023-07-20T14:00:36;29.80;38.70
52799;DHT22;38667;42.872;74.622;2023-07-20T14:03:03;29.70;39.00
52799;DHT22;38667;42.872;74.622;2023-07-20T14:05:29;29.60;39.30
52799;DHT22;38667;42.872;74.622;2023-07-20T14:07:55;29.60;39.40
52799;DHT22;38667;42.872;74.622;2023-07-20T14:10:22;29.60;39.10
52799;DHT22;38667;42.872;74.622;2023-07-20T14:12:48;29.60;39.50
52799;DHT22;38667;42.872;74.622;2023-07-20T14:15:16;29.50;39.90
52799;DHT22;38667;42.872;74.622;2023-07-20T14:17:42;29.50;39.70
52799;DHT22;38667;42.872;74.622;2023-07-20T14:20:10;29.50;39.80
52799;DHT22;38667;42.872;74.622;2023-07-20T14:22:36;29.50;40.00
52799;DHT22;38667;42.872;74.622;2023-07-20T14:25:03;29.40;40.20
52799;DHT22;38667;42.872;74.622;2023-07-20T14:27:29;29.40;40.00
52799;DHT22;38667;42.872;74.622;2023-07-20T14:29:56;29.40;40.00
52799;DHT22;38667;42.872;74.622;2023-07-20T14:32:23;29.40;40.20
52799;DHT22;38667;42.872;74.622;2023-07-20T14:34:50;29.40;40.30
52799;DHT22;38667;42.872;74.622;2023-07-20T14:37:16;29.40;40.60
52799;DHT22;38667;42.872;74.622;2023-07-20T14:39:42;29.30;41.00
52799;DHT22;38667;42.872;74.622;2023-07-20T14:42:09;29.30;41.20
52799;DHT22;38667;42.872;74.622;2023-07-20T14:44:35;29.30;41.40
52799;DHT22;38667;42.872;74.622;2023-07-20T14:47:01;29.30;41.40
52799;DHT22;38667;42.872;74.622;2023-07-20T14:49:29;29.30;41.60
52799;DHT22;38667;42.872;74.622;2023-07-20T14:51:55;29.30;42.30
52799;DHT22;38667;42.872;74.622;2023-07-20T14:54:22;29.30;42.40
52799;DHT22;38667;42.872;74.622;2023-07-20T14:56:49;29.30;41.70
52799;DHT22;38667;42.872;74.622;2023-07-20T14:59:16;29.30;40.90
52799;DHT22;38667;42.872;74.622;2023-07-20T15:01:42;29.40;39.90
52799;DHT22;38667;42.872;74.622;2023-07-20T15:04:08;29.50;40.40
52799;DHT22;38667;42.872;74.622;2023-07-20T15:06:36;29.60;39.60
52799;DHT22;38667;42.872;74.622;2023-07-20T15:09:03;29.50;39.50
52799;DHT22;38667;42.872;74.622;2023-07-20T15:11:29;29.50;39.90
52799;DHT22;38667;42.872;74.622;2023-07-20T15:13:55;29.50;40.10
52799;DHT22;38667;42.872;74.622;2023-07-20T15:16:22;29.50;40.70
52799;DHT22;38667;42.872;74.622;2023-07-20T15:18:48;29.50;39.90
52799;DHT22;38667;42.872;74.622;2023-07-20T15:21:14;29.50;39.90